KTEX

Telluride

Airport
ICAO code
KTEX
Summary
ICAO Region
NAM
ICAO Territory
Location

Telluride, San Miguel County, Colorado,

Serving
Telluride, Colorado
Coordinates
37° 57' 14" N , 107° 54' 6" W
KCC
Metar
Observation
KTEX 211435Z AUTO 12006KT 10SM BKN043 OVC050 M03/M09 A2984 RMK AO2
Station
Telluride, Telluride Regional Airport
Date/Time
2023-03-21 14:35:00
Wind direction
120°
Wind speed
06 kts
Lowest cloud amount
broken clouds
Temperature
-3°C
Dew point
-9°C
Humidity
63%
Weather condition
n/a

Description

Telluride Regional Airport is a public use airport located five nautical miles west of the central business district of Telluride, a town in San Miguel County, Colorado, United States. At an elevation of 2767 m above sea level, it is the highest commercial airport in North America.

Climatology

Because of its altitude and position in the Rockies, Telluride has a subarctic climate (Köppen climate classification Dfc) - long, usually very cold winters, and short, cool to mild summers.

Runways

Designator Length Width Surface Rops
9/27 2094 30 ASP Yes/Yes

Airport map

Aerial View

SKYbrary Partners:

Safety knowledge contributed by: